Airfield :
LOGIN :

Register | Disclaimer

   EN    FR    IT 

 










Legend :    VFR   Marginal VFR   IFR   Intensive IFR   Very Intensive IFR
Visi :
Ceiling :
>= 8 km
>= 3000ft
5 to 8 km
1000 to 3000 ft
1500m to 5 km
500 to 1000 ft
800 to 1500m
200 to 500 ft
< 800m
< 200 ft
Symbols :   Thunderstorms  Fog  Heavy snow  Heavy precipitations  Wind > 20 kt
SIGMETs :     Misc.  Thunderstorms  Icing  Turbulence  Mountain Waves  Volcanic Ashes







- Airport Elevation : 1649 ft
- IATA code : HHN


EDFH - Frankfurt-Hahn Rhineland-Palatinate

CURRENT METAR :
  • 240820Z 27014G24KT 9999 SCT028 15/08 Q1019

EXPIRED METARs :
  • 240750Z 26013KT 230V300 9999 SCT025 14/08 Q1018
  • 240720Z 27015KT 240V300 9999 SCT022 14/08 Q1019
  • 240650Z 27012G23KT 240V310 9999 SCT022 14/08 Q1018
  • 240620Z 26012KT 9999 BKN022 13/09 Q1018
  • 240550Z 27011KT 240V300 9999 FEW017 BKN023 13/10 Q1018
  • 240520Z 27007KT 240V300 9999 FEW017 BKN024 13/10 Q1018

TAF TAF EDFH
Valid from the 24 at 06:00 until the 25 at 06:00 UTC


240500Z 2406/2506 25009KT 9999 SCT030
TEMPO 2409/2417 27015G25KT
No reported NOTAMs for that airfield.



MET'MAP, your aeronautical weather chart ! - Copyright ORBIFLY December 2007 - Disclaimer

ORBIFLY MET'MAP TEAM :

Programming & Development : Alexandra Zaïnal
Concept & Development : Baudouin d'Aumeries
Co-Development & Prog : Marc-Olivier Méhu
Technical & hardware support : Manuel Goepfert

Contact : metmap@orbifly.com




SOURCES & CREDITS :

   NOAA